sensor_id;sensor_type;location;lat;lon;timestamp;pressure;altitude;pressure_sealevel;temperature;humidity
22653;BME280;11493;43.344;26.226;2023-04-07T00:02:09;99075.31;;;6.07;65.99
22653;BME280;11493;43.344;26.226;2023-04-07T00:04:37;99060.38;;;5.99;66.25
22653;BME280;11493;43.344;26.226;2023-04-07T00:07:04;99067.41;;;6.05;66.54
22653;BME280;11493;43.344;26.226;2023-04-07T00:09:31;99081.53;;;6.12;66.71
22653;BME280;11493;43.344;26.226;2023-04-07T00:11:58;99077.81;;;6.03;66.84
22653;BME280;11493;43.344;26.226;2023-04-07T00:14:28;99080.63;;;5.98;67.08
22653;BME280;11493;43.344;26.226;2023-04-07T00:16:55;99078.13;;;6.02;67.08
22653;BME280;11493;43.344;26.226;2023-04-07T00:19:22;99072.72;;;5.97;67.86
22653;BME280;11493;43.344;26.226;2023-04-07T00:21:49;99069.16;;;5.96;67.54
22653;BME280;11493;43.344;26.226;2023-04-07T00:24:16;99081.44;;;5.99;67.58
22653;BME280;11493;43.344;26.226;2023-04-07T00:26:59;99081.44;;;5.99;67.30
22653;BME280;11493;43.344;26.226;2023-04-07T00:29:26;99082.81;;;5.96;67.07
22653;BME280;11493;43.344;26.226;2023-04-07T00:31:53;99071.84;;;6.01;67.06
22653;BME280;11493;43.344;26.226;2023-04-07T00:34:20;99076.19;;;6.02;67.08
22653;BME280;11493;43.344;26.226;2023-04-07T00:36:50;99079.09;;;6.11;67.16
22653;BME280;11493;43.344;26.226;2023-04-07T00:39:18;99073.13;;;6.09;67.19
22653;BME280;11493;43.344;26.226;2023-04-07T00:41:46;99066.66;;;6.00;67.79
22653;BME280;11493;43.344;26.226;2023-04-07T00:44:13;99070.97;;;6.06;67.58
22653;BME280;11493;43.344;26.226;2023-04-07T00:46:40;99075.84;;;6.09;67.86
22653;BME280;11493;43.344;26.226;2023-04-07T00:49:08;99080.22;;;6.10;67.78
22653;BME280;11493;43.344;26.226;2023-04-07T00:51:37;99071.56;;;6.03;68.12
22653;BME280;11493;43.344;26.226;2023-04-07T00:54:04;99070.97;;;6.06;67.89
22653;BME280;11493;43.344;26.226;2023-04-07T00:56:32;99062.31;;;5.99;68.38
22653;BME280;11493;43.344;26.226;2023-04-07T00:58:59;99066.59;;;6.05;68.37
22653;BME280;11493;43.344;26.226;2023-04-07T01:01:36;99078.00;;;6.12;68.18
22653;BME280;11493;43.344;26.226;2023-04-07T01:04:11;99070.91;;;6.11;67.14
22653;BME280;11493;43.344;26.226;2023-04-07T01:06:47;99070.97;;;6.06;67.22
22653;BME280;11493;43.344;26.226;2023-04-07T01:09:33;99069.84;;;6.07;66.89
22653;BME280;11493;43.344;26.226;2023-04-07T01:14:51;99066.38;;;6.01;67.68
22653;BME280;11493;43.344;26.226;2023-04-07T01:17:38;99062.84;;;6.01;67.69
22653;BME280;11493;43.344;26.226;2023-04-07T01:20:15;99057.75;;;5.94;67.72
22653;BME280;11493;43.344;26.226;2023-04-07T01:22:46;99064.59;;;5.91;67.73
22653;BME280;11493;43.344;26.226;2023-04-07T01:30:34;99056.78;;;5.80;67.37
22653;BME280;11493;43.344;26.226;2023-04-07T01:33:04;99066.13;;;5.74;68.30
22653;BME280;11493;43.344;26.226;2023-04-07T01:35:34;99066.13;;;5.74;68.84
22653;BME280;11493;43.344;26.226;2023-04-07T01:38:02;99065.91;;;5.70;68.19
22653;BME280;11493;43.344;26.226;2023-04-07T01:40:29;99039.56;;;5.55;68.20
22653;BME280;11493;43.344;26.226;2023-04-07T01:42:59;99063.78;;;5.62;68.47
22653;BME280;11493;43.344;26.226;2023-04-07T01:45:27;99065.13;;;5.65;68.80
22653;BME280;11493;43.344;26.226;2023-04-07T01:47:55;99056.53;;;5.52;69.55
22653;BME280;11493;43.344;26.226;2023-04-07T01:50:23;99062.22;;;5.56;69.95
22653;BME280;11493;43.344;26.226;2023-04-07T01:52:51;99063.31;;;5.55;69.90
22653;BME280;11493;43.344;26.226;2023-04-07T01:55:20;99062.31;;;5.46;70.30
22653;BME280;11493;43.344;26.226;2023-04-07T01:57:57;99052.06;;;5.33;71.06
22653;BME280;11493;43.344;26.226;2023-04-07T02:00:24;99059.63;;;5.41;70.97
22653;BME280;11493;43.344;26.226;2023-04-07T02:02:55;99056.75;;;5.27;72.01
22653;BME280;11493;43.344;26.226;2023-04-07T02:05:26;99042.47;;;5.11;72.93
22653;BME280;11493;43.344;26.226;2023-04-07T02:08:04;99067.00;;;5.11;74.10
22653;BME280;11493;43.344;26.226;2023-04-07T02:10:36;99050.97;;;5.05;73.57
22653;BME280;11493;43.344;26.226;2023-04-07T02:13:05;99053.41;;;5.06;73.03
22653;BME280;11493;43.344;26.226;2023-04-07T02:15:36;99041.47;;;5.02;73.36
22653;BME280;11493;43.344;26.226;2023-04-07T02:18:05;99047.47;;;4.99;73.65
22653;BME280;11493;43.344;26.226;2023-04-07T02:20:35;99057.31;;;4.95;74.11
22653;BME280;11493;43.344;26.226;2023-04-07T02:23:03;99060.41;;;4.83;74.22
22653;BME280;11493;43.344;26.226;2023-04-07T02:25:31;99055.53;;;4.80;75.11
22653;BME280;11493;43.344;26.226;2023-04-07T02:27:59;99047.94;;;4.72;76.57
22653;BME280;11493;43.344;26.226;2023-04-07T02:30:27;99049.25;;;4.80;75.85
22653;BME280;11493;43.344;26.226;2023-04-07T02:32:55;99042.22;;;4.74;75.38
22653;BME280;11493;43.344;26.226;2023-04-07T02:35:22;99053.88;;;4.79;75.47
22653;BME280;11493;43.344;26.226;2023-04-07T02:37:50;99053.66;;;4.76;75.97
22653;BME280;11493;43.344;26.226;2023-04-07T02:40:17;99047.69;;;4.69;75.88
22653;BME280;11493;43.344;26.226;2023-04-07T02:42:44;99057.81;;;4.63;76.73
22653;BME280;11493;43.344;26.226;2023-04-07T02:45:11;99072.03;;;4.55;77.86
22653;BME280;11493;43.344;26.226;2023-04-07T02:47:39;99059.53;;;4.49;77.54
22653;BME280;11493;43.344;26.226;2023-04-07T02:50:06;99053.06;;;4.40;78.07
22653;BME280;11493;43.344;26.226;2023-04-07T02:52:34;99073.44;;;4.47;78.25
22653;BME280;11493;43.344;26.226;2023-04-07T02:55:07;99072.41;;;4.43;78.00
22653;BME280;11493;43.344;26.226;2023-04-07T02:57:35;99066.16;;;4.38;78.14
22653;BME280;11493;43.344;26.226;2023-04-07T03:00:06;99069.69;;;4.38;77.93
22653;BME280;11493;43.344;26.226;2023-04-07T03:02:49;99080.03;;;4.41;78.03
22653;BME280;11493;43.344;26.226;2023-04-07T03:05:17;99075.16;;;4.38;78.38
22653;BME280;11493;43.344;26.226;2023-04-07T03:07:44;99079.50;;;4.39;78.58
22653;BME280;11493;43.344;26.226;2023-04-07T03:10:12;99083.84;;;4.40;78.73
22653;BME280;11493;43.344;26.226;2023-04-07T03:12:39;99080.03;;;4.41;78.27
22653;BME280;11493;43.344;26.226;2023-04-07T03:15:06;99084.38;;;4.42;78.30
22653;BME280;11493;43.344;26.226;2023-04-07T03:17:34;99080.06;;;4.36;78.37
22653;BME280;11493;43.344;26.226;2023-04-07T03:20:02;99082.47;;;4.43;77.87
22653;BME280;11493;43.344;26.226;2023-04-07T03:22:31;99078.72;;;4.34;77.86
22653;BME280;11493;43.344;26.226;2023-04-07T03:24:58;99077.63;;;4.29;78.54
22653;BME280;11493;43.344;26.226;2023-04-07T03:27:25;99083.38;;;4.23;79.29
22653;BME280;11493;43.344;26.226;2023-04-07T03:29:53;99086.69;;;4.15;80.48
22653;BME280;11493;43.344;26.226;2023-04-07T03:32:21;99085.06;;;4.14;81.11
22653;BME280;11493;43.344;26.226;2023-04-07T03:34:48;99091.56;;;4.18;80.60
22653;BME280;11493;43.344;26.226;2023-04-07T03:37:15;99087.78;;;4.14;80.93
22653;BME280;11493;43.344;26.226;2023-04-07T03:39:42;99100.31;;;4.10;81.76
22653;BME280;11493;43.344;26.226;2023-04-07T03:42:30;99085.63;;;4.06;82.50
22653;BME280;11493;43.344;26.226;2023-04-07T03:45:01;99101.41;;;4.09;82.31
22653;BME280;11493;43.344;26.226;2023-04-07T03:47:30;99089.44;;;4.10;80.94
22653;BME280;11493;43.344;26.226;2023-04-07T03:50:00;99099.72;;;4.23;80.65
22653;BME280;11493;43.344;26.226;2023-04-07T03:52:30;99108.41;;;4.30;79.68
22653;BME280;11493;43.344;26.226;2023-04-07T03:55:06;99107.84;;;4.38;78.98
22653;BME280;11493;43.344;26.226;2023-04-07T03:57:33;99090.97;;;4.36;79.14
22653;BME280;11493;43.344;26.226;2023-04-07T04:00:01;99102.91;;;4.40;77.65
22653;BME280;11493;43.344;26.226;2023-04-07T04:02:41;99111.06;;;4.45;78.19
22653;BME280;11493;43.344;26.226;2023-04-07T04:05:13;99111.53;;;4.57;78.30
22653;BME280;11493;43.344;26.226;2023-04-07T04:07:41;99110.69;;;4.62;78.18
22653;BME280;11493;43.344;26.226;2023-04-07T04:10:09;99108.75;;;4.68;76.58
22653;BME280;11493;43.344;26.226;2023-04-07T04:12:40;99110.91;;;4.71;77.17
22653;BME280;11493;43.344;26.226;2023-04-07T04:15:10;99123.66;;;4.80;76.93
22653;BME280;11493;43.344;26.226;2023-04-07T04:17:38;99122.25;;;4.88;76.78
22653;BME280;11493;43.344;26.226;2023-04-07T04:20:07;99113.25;;;4.87;77.16
22653;BME280;11493;43.344;26.226;2023-04-07T04:22:42;99108.66;;;4.83;77.82
22653;BME280;11493;43.344;26.226;2023-04-07T04:25:10;99127.69;;;4.93;77.38
22653;BME280;11493;43.344;26.226;2023-04-07T04:27:40;99136.66;;;4.93;77.78
22653;BME280;11493;43.344;26.226;2023-04-07T04:30:15;99130.94;;;4.95;76.97
22653;BME280;11493;43.344;26.226;2023-04-07T04:32:55;99131.97;;;5.04;76.43
22653;BME280;11493;43.344;26.226;2023-04-07T04:35:34;99124.38;;;4.96;76.10
22653;BME280;11493;43.344;26.226;2023-04-07T04:38:11;99144.75;;;5.09;76.46
22653;BME280;11493;43.344;26.226;2023-04-07T04:40:43;99147.78;;;5.02;77.65
22653;BME280;11493;43.344;26.226;2023-04-07T04:43:11;99136.34;;;5.00;77.93
22653;BME280;11493;43.344;26.226;2023-04-07T04:45:40;99123.06;;;4.88;77.13
22653;BME280;11493;43.344;26.226;2023-04-07T04:48:10;99156.41;;;5.19;76.92
22653;BME280;11493;43.344;26.226;2023-04-07T04:50:37;99147.16;;;5.15;76.28
22653;BME280;11493;43.344;26.226;2023-04-07T04:53:09;99140.03;;;5.19;76.12
22653;BME280;11493;43.344;26.226;2023-04-07T04:55:44;99149.25;;;5.23;76.46
22653;BME280;11493;43.344;26.226;2023-04-07T04:58:18;99154.69;;;5.28;76.63
22653;BME280;11493;43.344;26.226;2023-04-07T05:00:53;99161.97;;;5.38;76.61
22653;BME280;11493;43.344;26.226;2023-04-07T05:03:31;99155.41;;;5.39;77.32
22653;BME280;11493;43.344;26.226;2023-04-07T05:06:02;99163.31;;;5.41;77.22
22653;BME280;11493;43.344;26.226;2023-04-07T05:08:29;99158.91;;;5.45;76.40
22653;BME280;11493;43.344;26.226;2023-04-07T05:10:56;99154.03;;;5.42;75.85
22653;BME280;11493;43.344;26.226;2023-04-07T05:13:28;99169.75;;;5.55;75.63
22653;BME280;11493;43.344;26.226;2023-04-07T05:15:59;99167.47;;;5.67;75.11
22653;BME280;11493;43.344;26.226;2023-04-07T05:18:28;99170.00;;;5.87;74.85
22653;BME280;11493;43.344;26.226;2023-04-07T05:20:56;99175.47;;;5.92;73.75
22653;BME280;11493;43.344;26.226;2023-04-07T05:23:25;99183.13;;;6.14;71.97
22653;BME280;11493;43.344;26.226;2023-04-07T05:25:52;99178.63;;;6.29;71.75
22653;BME280;11493;43.344;26.226;2023-04-07T05:28:19;99182.56;;;6.41;71.66
22653;BME280;11493;43.344;26.226;2023-04-07T05:30:48;99174.72;;;6.58;70.03
22653;BME280;11493;43.344;26.226;2023-04-07T05:33:15;99186.13;;;6.66;70.31
22653;BME280;11493;43.344;26.226;2023-04-07T05:35:46;99187.06;;;6.75;69.38
22653;BME280;11493;43.344;26.226;2023-04-07T05:38:14;99186.28;;;6.93;69.18
22653;BME280;11493;43.344;26.226;2023-04-07T05:40:42;99196.78;;;7.05;67.99
22653;BME280;11493;43.344;26.226;2023-04-07T05:43:15;99182.66;;;7.16;67.88
22653;BME280;11493;43.344;26.226;2023-04-07T05:45:43;99183.78;;;7.34;67.18
22653;BME280;11493;43.344;26.226;2023-04-07T05:48:10;99176.38;;;7.35;67.81
22653;BME280;11493;43.344;26.226;2023-04-07T05:50:42;99184.09;;;7.46;66.64
22653;BME280;11493;43.344;26.226;2023-04-07T05:53:12;99182.69;;;7.68;66.15
22653;BME280;11493;43.344;26.226;2023-04-07T05:55:43;99173.31;;;7.87;65.62
22653;BME280;11493;43.344;26.226;2023-04-07T05:58:18;99180.13;;;8.04;64.92
22653;BME280;11493;43.344;26.226;2023-04-07T06:00:49;99189.97;;;8.18;63.35
22653;BME280;11493;43.344;26.226;2023-04-07T06:03:17;99190.34;;;8.44;61.39
22653;BME280;11493;43.344;26.226;2023-04-07T06:05:57;99185.69;;;8.59;62.01
22653;BME280;11493;43.344;26.226;2023-04-07T06:08:25;99184.06;;;8.57;60.82
22653;BME280;11493;43.344;26.226;2023-04-07T06:10:52;99181.22;;;8.76;61.46
22653;BME280;11493;43.344;26.226;2023-04-07T06:13:19;99177.53;;;8.81;61.89
22653;BME280;11493;43.344;26.226;2023-04-07T06:15:47;99178.44;;;8.90;61.26
22653;BME280;11493;43.344;26.226;2023-04-07T06:18:14;99189.47;;;9.12;60.84
22653;BME280;11493;43.344;26.226;2023-04-07T06:20:41;99194.34;;;9.15;57.03
22653;BME280;11493;43.344;26.226;2023-04-07T06:23:08;99179.44;;;8.94;56.90
22653;BME280;11493;43.344;26.226;2023-04-07T06:25:35;99201.38;;;8.94;55.78
22653;BME280;11493;43.344;26.226;2023-04-07T06:28:02;99208.28;;;9.05;58.71
22653;BME280;11493;43.344;26.226;2023-04-07T06:30:29;99205.41;;;9.24;57.81
22653;BME280;11493;43.344;26.226;2023-04-07T06:32:57;99194.66;;;9.14;55.35
22653;BME280;11493;43.344;26.226;2023-04-07T06:35:25;99208.47;;;9.09;54.28
22653;BME280;11493;43.344;26.226;2023-04-07T06:37:53;99209.81;;;8.98;53.80
22653;BME280;11493;43.344;26.226;2023-04-07T06:40:20;99213.88;;;9.00;54.39
22653;BME280;11493;43.344;26.226;2023-04-07T06:42:47;99221.75;;;8.79;53.82
22653;BME280;11493;43.344;26.226;2023-04-07T06:45:22;99223.78;;;8.74;53.88
22653;BME280;11493;43.344;26.226;2023-04-07T06:47:49;99230.59;;;8.90;54.41
22653;BME280;11493;43.344;26.226;2023-04-07T06:50:16;99222.53;;;8.39;53.07
22653;BME280;11493;43.344;26.226;2023-04-07T06:52:46;99228.63;;;8.49;54.46
22653;BME280;11493;43.344;26.226;2023-04-07T06:55:14;99231.91;;;8.65;54.98
22653;BME280;11493;43.344;26.226;2023-04-07T06:57:41;99227.00;;;8.48;54.39
22653;BME280;11493;43.344;26.226;2023-04-07T07:00:08;99234.84;;;8.69;54.16
22653;BME280;11493;43.344;26.226;2023-04-07T07:02:35;99214.84;;;8.68;54.72
22653;BME280;11493;43.344;26.226;2023-04-07T07:05:03;99240.91;;;8.93;53.21
22653;BME280;11493;43.344;26.226;2023-04-07T07:07:31;99235.13;;;9.08;53.71
22653;BME280;11493;43.344;26.226;2023-04-07T07:09:58;99245.94;;;9.41;53.67
22653;BME280;11493;43.344;26.226;2023-04-07T07:12:25;99238.34;;;9.60;54.23
22653;BME280;11493;43.344;26.226;2023-04-07T07:14:52;99241.34;;;9.50;53.67
22653;BME280;11493;43.344;26.226;2023-04-07T07:17:19;99244.69;;;9.47;51.21
22653;BME280;11493;43.344;26.226;2023-04-07T07:19:46;99245.63;;;9.42;50.76
22653;BME280;11493;43.344;26.226;2023-04-07T07:22:14;99255.91;;;9.37;50.89
22653;BME280;11493;43.344;26.226;2023-04-07T07:24:41;99252.66;;;9.35;51.62
22653;BME280;11493;43.344;26.226;2023-04-07T07:27:08;99245.53;;;9.34;52.23
22653;BME280;11493;43.344;26.226;2023-04-07T07:29:35;99259.34;;;9.42;52.65
22653;BME280;11493;43.344;26.226;2023-04-07T07:32:03;99250.50;;;9.45;52.28
22653;BME280;11493;43.344;26.226;2023-04-07T07:34:30;99262.75;;;9.62;53.68
22653;BME280;11493;43.344;26.226;2023-04-07T07:36:57;99262.94;;;9.29;51.43
22653;BME280;11493;43.344;26.226;2023-04-07T07:39:26;99265.19;;;9.13;50.82
22653;BME280;11493;43.344;26.226;2023-04-07T07:41:54;99247.94;;;8.99;50.63
22653;BME280;11493;43.344;26.226;2023-04-07T07:44:22;99253.59;;;9.16;51.77
22653;BME280;11493;43.344;26.226;2023-04-07T07:46:49;99254.78;;;9.38;51.08
22653;BME280;11493;43.344;26.226;2023-04-07T07:49:17;99253.06;;;9.42;51.77
22653;BME280;11493;43.344;26.226;2023-04-07T07:51:44;99264.19;;;9.59;51.63
22653;BME280;11493;43.344;26.226;2023-04-07T07:54:12;99254.38;;;9.67;50.60
22653;BME280;11493;43.344;26.226;2023-04-07T07:56:40;99260.56;;;9.72;49.80
22653;BME280;11493;43.344;26.226;2023-04-07T07:59:07;99252.59;;;10.07;50.16
22653;BME280;11493;43.344;26.226;2023-04-07T08:01:34;99264.22;;;10.26;51.38
22653;BME280;11493;43.344;26.226;2023-04-07T08:04:01;99255.78;;;10.23;52.17
22653;BME280;11493;43.344;26.226;2023-04-07T08:06:28;99256.22;;;10.16;47.70
22653;BME280;11493;43.344;26.226;2023-04-07T08:08:57;99256.34;;;10.33;48.50
22653;BME280;11493;43.344;26.226;2023-04-07T08:11:24;99263.34;;;10.48;49.06
22653;BME280;11493;43.344;26.226;2023-04-07T08:13:52;99262.28;;;10.58;48.27
22653;BME280;11493;43.344;26.226;2023-04-07T08:16:20;99250.00;;;10.64;47.59
22653;BME280;11493;43.344;26.226;2023-04-07T08:18:48;99261.00;;;10.64;47.52
22653;BME280;11493;43.344;26.226;2023-04-07T08:21:15;99247.75;;;10.66;47.42
22653;BME280;11493;43.344;26.226;2023-04-07T08:23:42;99260.50;;;10.93;48.08
22653;BME280;11493;43.344;26.226;2023-04-07T08:26:09;99256.84;;;10.75;48.41
22653;BME280;11493;43.344;26.226;2023-04-07T08:28:36;99265.72;;;10.63;47.25
22653;BME280;11493;43.344;26.226;2023-04-07T08:31:05;99262.28;;;10.58;46.87
22653;BME280;11493;43.344;26.226;2023-04-07T08:33:32;99264.94;;;10.40;46.49
22653;BME280;11493;43.344;26.226;2023-04-07T08:35:59;99267.53;;;10.37;48.24
22653;BME280;11493;43.344;26.226;2023-04-07T08:38:26;99265.63;;;10.46;47.63
22653;BME280;11493;43.344;26.226;2023-04-07T08:41:03;99252.63;;;10.69;46.94
22653;BME280;11493;43.344;26.226;2023-04-07T08:43:33;99261.41;;;10.79;47.57
22653;BME280;11493;43.344;26.226;2023-04-07T08:46:01;99263.88;;;10.90;48.73
22653;BME280;11493;43.344;26.226;2023-04-07T08:48:29;99259.00;;;10.86;47.08
22653;BME280;11493;43.344;26.226;2023-04-07T08:51:07;99262.28;;;10.97;46.40
22653;BME280;11493;43.344;26.226;2023-04-07T08:56:28;99258.59;;;11.10;47.03
22653;BME280;11493;43.344;26.226;2023-04-07T08:58:57;99264.91;;;11.19;46.67
22653;BME280;11493;43.344;26.226;2023-04-07T09:01:25;99262.78;;;10.99;46.50
22653;BME280;11493;43.344;26.226;2023-04-07T09:03:55;99262.16;;;11.02;45.98
22653;BME280;11493;43.344;26.226;2023-04-07T09:06:23;99246.09;;;10.96;46.74
22653;BME280;11493;43.344;26.226;2023-04-07T09:08:51;99253.72;;;10.99;46.83
22653;BME280;11493;43.344;26.226;2023-04-07T09:11:18;99262.16;;;11.19;48.12
22653;BME280;11493;43.344;26.226;2023-04-07T09:13:45;99256.00;;;11.23;46.28
22653;BME280;11493;43.344;26.226;2023-04-07T09:16:13;99248.28;;;11.50;47.48
22653;BME280;11493;43.344;26.226;2023-04-07T09:18:40;99247.69;;;11.79;46.13
22653;BME280;11493;43.344;26.226;2023-04-07T09:21:08;99268.94;;;11.88;46.04
22653;BME280;11493;43.344;26.226;2023-04-07T09:23:38;99277.66;;;12.07;45.60
22653;BME280;11493;43.344;26.226;2023-04-07T09:26:26;99259.97;;;11.91;45.39
22653;BME280;11493;43.344;26.226;2023-04-07T09:28:58;99263.06;;;11.89;45.58
22653;BME280;11493;43.344;26.226;2023-04-07T09:31:48;99261.59;;;11.92;43.87
22653;BME280;11493;43.344;26.226;2023-04-07T09:34:29;99256.44;;;11.81;43.71
22653;BME280;11493;43.344;26.226;2023-04-07T09:36:56;99255.47;;;11.77;44.45
22653;BME280;11493;43.344;26.226;2023-04-07T09:39:24;99239.25;;;11.84;44.79
22653;BME280;11493;43.344;26.226;2023-04-07T09:41:52;99251.72;;;11.73;45.06
22653;BME280;11493;43.344;26.226;2023-04-07T09:44:23;99252.50;;;12.00;44.80
22653;BME280;11493;43.344;26.226;2023-04-07T09:46:57;99250.41;;;11.97;47.39
22653;BME280;11493;43.344;26.226;2023-04-07T09:49:25;99248.78;;;12.04;45.66
22653;BME280;11493;43.344;26.226;2023-04-07T09:54:37;99239.84;;;12.16;44.52
22653;BME280;11493;43.344;26.226;2023-04-07T09:57:09;99255.19;;;12.43;44.57
22653;BME280;11493;43.344;26.226;2023-04-07T09:59:39;99254.53;;;12.55;44.75
22653;BME280;11493;43.344;26.226;2023-04-07T10:02:08;99249.63;;;12.60;44.29
22653;BME280;11493;43.344;26.226;2023-04-07T10:04:35;99253.78;;;12.75;43.33
22653;BME280;11493;43.344;26.226;2023-04-07T10:07:03;99245.19;;;13.06;43.06
22653;BME280;11493;43.344;26.226;2023-04-07T10:09:31;99256.72;;;13.37;44.56
22653;BME280;11493;43.344;26.226;2023-04-07T10:11:58;99252.41;;;13.48;42.44
22653;BME280;11493;43.344;26.226;2023-04-07T10:14:32;99238.72;;;13.52;40.85
22653;BME280;11493;43.344;26.226;2023-04-07T10:17:02;99230.19;;;13.66;42.56
22653;BME280;11493;43.344;26.226;2023-04-07T10:19:33;99233.47;;;14.01;42.63
22653;BME280;11493;43.344;26.226;2023-04-07T10:22:02;99244.72;;;13.96;39.88
22653;BME280;11493;43.344;26.226;2023-04-07T10:24:45;99252.47;;;14.02;40.82
22653;BME280;11493;43.344;26.226;2023-04-07T10:27:23;99246.09;;;13.90;40.67
22653;BME280;11493;43.344;26.226;2023-04-07T10:29:54;99249.66;;;13.69;41.95
22653;BME280;11493;43.344;26.226;2023-04-07T10:32:23;99242.78;;;13.75;41.78
22653;BME280;11493;43.344;26.226;2023-04-07T10:37:21;99245.59;;;14.08;39.86
22653;BME280;11493;43.344;26.226;2023-04-07T10:45:06;99242.69;;;14.05;38.70
22653;BME280;11493;43.344;26.226;2023-04-07T10:47:34;99238.84;;;13.97;38.61
22653;BME280;11493;43.344;26.226;2023-04-07T10:52:38;99243.47;;;13.72;40.24
22653;BME280;11493;43.344;26.226;2023-04-07T10:55:28;99237.25;;;13.75;40.51
22653;BME280;11493;43.344;26.226;2023-04-07T10:58:21;99240.56;;;13.90;39.51
22653;BME280;11493;43.344;26.226;2023-04-07T11:03:39;99239.72;;;14.10;38.54
22653;BME280;11493;43.344;26.226;2023-04-07T11:06:09;99245.06;;;13.94;40.32
22653;BME280;11493;43.344;26.226;2023-04-07T11:08:44;99243.38;;;13.81;39.18
22653;BME280;11493;43.344;26.226;2023-04-07T11:11:20;99237.38;;;13.79;39.30
22653;BME280;11493;43.344;26.226;2023-04-07T11:14:00;99233.81;;;13.78;39.67
22653;BME280;11493;43.344;26.226;2023-04-07T11:16:35;99242.44;;;13.98;39.73
22653;BME280;11493;43.344;26.226;2023-04-07T11:19:03;99243.13;;;13.95;39.81
22653;BME280;11493;43.344;26.226;2023-04-07T11:21:30;99250.78;;;14.10;40.30
22653;BME280;11493;43.344;26.226;2023-04-07T11:23:57;99251.34;;;13.82;41.79
22653;BME280;11493;43.344;26.226;2023-04-07T11:26:24;99241.63;;;13.76;40.48
22653;BME280;11493;43.344;26.226;2023-04-07T11:28:53;99234.59;;;14.00;39.96
22653;BME280;11493;43.344;26.226;2023-04-07T11:31:29;99233.41;;;13.89;39.92
22653;BME280;11493;43.344;26.226;2023-04-07T11:34:02;99235.69;;;13.87;41.83
22653;BME280;11493;43.344;26.226;2023-04-07T11:36:32;99244.59;;;13.92;39.86
22653;BME280;11493;43.344;26.226;2023-04-07T11:39:00;99240.28;;;13.41;39.43
22653;BME280;11493;43.344;26.226;2023-04-07T11:41:31;99219.59;;;13.47;39.70
22653;BME280;11493;43.344;26.226;2023-04-07T11:44:09;99243.72;;;13.79;40.68
22653;BME280;11493;43.344;26.226;2023-04-07T11:49:23;99245.41;;;13.93;40.15
22653;BME280;11493;43.344;26.226;2023-04-07T11:52:00;99250.78;;;14.10;40.39
22653;BME280;11493;43.344;26.226;2023-04-07T11:54:41;99246.97;;;14.14;38.50
22653;BME280;11493;43.344;26.226;2023-04-07T11:57:09;99241.41;;;14.02;39.41
22653;BME280;11493;43.344;26.226;2023-04-07T11:59:41;99242.56;;;14.01;39.09
22653;BME280;11493;43.344;26.226;2023-04-07T12:02:08;99246.88;;;14.23;39.22
22653;BME280;11493;43.344;26.226;2023-04-07T12:04:36;99247.81;;;14.27;39.12
22653;BME280;11493;43.344;26.226;2023-04-07T12:07:07;99242.19;;;14.36;38.93
22653;BME280;11493;43.344;26.226;2023-04-07T12:09:35;99247.72;;;14.57;38.23
22653;BME280;11493;43.344;26.226;2023-04-07T12:12:04;99244.00;;;14.20;39.69
22653;BME280;11493;43.344;26.226;2023-04-07T12:14:34;99231.72;;;13.96;42.28
22653;BME280;11493;43.344;26.226;2023-04-07T12:17:01;99227.59;;;13.81;41.39
22653;BME280;11493;43.344;26.226;2023-04-07T12:19:31;99253.50;;;13.98;41.44
22653;BME280;11493;43.344;26.226;2023-04-07T12:22:05;99250.81;;;13.89;41.32
22653;BME280;11493;43.344;26.226;2023-04-07T12:24:32;99245.28;;;13.89;41.94
22653;BME280;11493;43.344;26.226;2023-04-07T12:26:59;99252.44;;;13.69;41.33
22653;BME280;11493;43.344;26.226;2023-04-07T12:29:26;99247.91;;;13.65;42.14
22653;BME280;11493;43.344;26.226;2023-04-07T12:31:53;99256.22;;;13.86;41.76
22653;BME280;11493;43.344;26.226;2023-04-07T12:34:20;99251.69;;;13.81;40.67
22653;BME280;11493;43.344;26.226;2023-04-07T12:36:47;99250.94;;;13.72;40.74
22653;BME280;11493;43.344;26.226;2023-04-07T12:39:16;99261.66;;;13.73;41.23
22653;BME280;11493;43.344;26.226;2023-04-07T12:41:43;99253.66;;;13.80;41.30
22653;BME280;11493;43.344;26.226;2023-04-07T12:44:12;99250.00;;;13.68;40.26
22653;BME280;11493;43.344;26.226;2023-04-07T12:46:39;99247.84;;;13.73;41.39
22653;BME280;11493;43.344;26.226;2023-04-07T12:49:06;99249.47;;;13.74;40.83
22653;BME280;11493;43.344;26.226;2023-04-07T12:51:33;99259.53;;;14.12;40.55
22653;BME280;11493;43.344;26.226;2023-04-07T12:54:00;99252.41;;;14.23;40.69
22653;BME280;11493;43.344;26.226;2023-04-07T12:56:27;99251.25;;;14.45;41.47
22653;BME280;11493;43.344;26.226;2023-04-07T12:58:54;99257.75;;;14.61;41.58
22653;BME280;11493;43.344;26.226;2023-04-07T13:01:21;99239.56;;;14.39;40.21
22653;BME280;11493;43.344;26.226;2023-04-07T13:03:48;99261.53;;;14.24;40.63
22653;BME280;11493;43.344;26.226;2023-04-07T13:06:15;99254.13;;;14.15;40.13
22653;BME280;11493;43.344;26.226;2023-04-07T13:08:43;99253.56;;;14.22;40.78
22653;BME280;11493;43.344;26.226;2023-04-07T13:11:11;99252.22;;;14.28;40.68
22653;BME280;11493;43.344;26.226;2023-04-07T13:13:38;99253.13;;;14.53;39.78
22653;BME280;11493;43.344;26.226;2023-04-07T13:16:04;99257.31;;;14.84;39.43
22653;BME280;11493;43.344;26.226;2023-04-07T13:18:31;99253.50;;;14.64;39.41
22653;BME280;11493;43.344;26.226;2023-04-07T13:20:58;99264.38;;;14.81;38.79
22653;BME280;11493;43.344;26.226;2023-04-07T13:23:28;99252.25;;;14.73;39.45
22653;BME280;11493;43.344;26.226;2023-04-07T13:26:08;99253.28;;;14.69;39.70
22653;BME280;11493;43.344;26.226;2023-04-07T13:28:35;99269.84;;;14.57;39.91
22653;BME280;11493;43.344;26.226;2023-04-07T13:31:02;99270.75;;;14.49;39.41
22653;BME280;11493;43.344;26.226;2023-04-07T13:33:29;99267.59;;;14.38;39.94
22653;BME280;11493;43.344;26.226;2023-04-07T13:35:56;99266.84;;;14.29;40.42
22653;BME280;11493;43.344;26.226;2023-04-07T13:38:24;99278.25;;;14.27;39.96